sensor_id;sensor_type;location;lat;lon;timestamp;pressure;altitude;pressure_sealevel;temperature;humidity
74798;BME280;63326;45.088;7.658;2023-01-16T00:01:38;97792.56;;;1.39;84.78
74798;BME280;63326;45.088;7.658;2023-01-16T00:04:05;97787.13;;;1.40;84.58
74798;BME280;63326;45.088;7.658;2023-01-16T00:06:32;97740.03;;;1.08;84.54
74798;BME280;63326;45.088;7.658;2023-01-16T00:09:00;97710.09;;;0.90;83.80
74798;BME280;63326;45.088;7.658;2023-01-16T00:11:27;97714.28;;;0.93;84.23
74798;BME280;63326;45.088;7.658;2023-01-16T00:13:53;97711.53;;;0.84;83.68
74798;BME280;63326;45.088;7.658;2023-01-16T00:16:21;97742.84;;;0.97;83.59
74798;BME280;63326;45.088;7.658;2023-01-16T00:18:48;97720.97;;;0.77;82.80
74798;BME280;63326;45.088;7.658;2023-01-16T00:21:15;97721.28;;;0.74;83.40
74798;BME280;63326;45.088;7.658;2023-01-16T00:23:46;97692.84;;;0.58;83.42
74798;BME280;63326;45.088;7.658;2023-01-16T00:26:13;97716.81;;;0.75;83.74
74798;BME280;63326;45.088;7.658;2023-01-16T00:28:40;97704.81;;;0.53;83.83
74798;BME280;63326;45.088;7.658;2023-01-16T00:31:11;97666.13;;;0.34;83.96
74798;BME280;63326;45.088;7.658;2023-01-16T00:33:38;97688.56;;;0.48;84.04
74798;BME280;63326;45.088;7.658;2023-01-16T00:36:04;97705.31;;;0.66;83.92
74798;BME280;63326;45.088;7.658;2023-01-16T00:38:31;97727.75;;;0.80;84.10
74798;BME280;63326;45.088;7.658;2023-01-16T00:40:59;97715.44;;;0.71;83.31
74798;BME280;63326;45.088;7.658;2023-01-16T00:43:25;97736.41;;;0.82;83.90
74798;BME280;63326;45.088;7.658;2023-01-16T00:45:52;97730.16;;;0.73;83.49
74798;BME280;63326;45.088;7.658;2023-01-16T00:48:21;97741.25;;;0.77;84.35
74798;BME280;63326;45.088;7.658;2023-01-16T00:50:49;97719.78;;;0.62;83.58
74798;BME280;63326;45.088;7.658;2023-01-16T00:53:16;97708.00;;;0.47;83.46
74798;BME280;63326;45.088;7.658;2023-01-16T00:55:43;97650.91;;;0.09;83.72
74798;BME280;63326;45.088;7.658;2023-01-16T00:58:10;97719.25;;;0.49;83.47
74798;BME280;63326;45.088;7.658;2023-01-16T01:00:38;97642.19;;;-0.02;84.02
74798;BME280;63326;45.088;7.658;2023-01-16T01:03:05;97686.94;;;0.27;84.71
74798;BME280;63326;45.088;7.658;2023-01-16T01:05:35;97649.81;;;0.11;84.76
74798;BME280;63326;45.088;7.658;2023-01-16T01:08:01;97660.34;;;0.21;84.35
74798;BME280;63326;45.088;7.658;2023-01-16T01:10:29;97686.25;;;0.35;84.50
74798;BME280;63326;45.088;7.658;2023-01-16T01:12:55;97682.78;;;0.35;84.23
74798;BME280;63326;45.088;7.658;2023-01-16T01:15:23;97681.53;;;0.29;84.89
74798;BME280;63326;45.088;7.658;2023-01-16T01:17:49;97612.94;;;-0.08;85.06
74798;BME280;63326;45.088;7.658;2023-01-16T01:20:16;97690.97;;;0.32;85.18
74798;BME280;63326;45.088;7.658;2023-01-16T01:22:44;97645.38;;;0.02;85.48
74798;BME280;63326;45.088;7.658;2023-01-16T01:25:11;97683.19;;;0.20;84.37
74798;BME280;63326;45.088;7.658;2023-01-16T01:27:38;97671.16;;;0.18;84.89
74798;BME280;63326;45.088;7.658;2023-01-16T01:30:05;97652.03;;;0.06;84.13
74798;BME280;63326;45.088;7.658;2023-01-16T01:32:32;97622.66;;;-0.18;83.96
74798;BME280;63326;45.088;7.658;2023-01-16T01:34:58;97603.25;;;-0.37;84.00
74798;BME280;63326;45.088;7.658;2023-01-16T01:37:27;97664.91;;;-0.01;83.42
74798;BME280;63326;45.088;7.658;2023-01-16T01:39:53;97613.81;;;-0.37;84.07
74798;BME280;63326;45.088;7.658;2023-01-16T01:42:20;97621.00;;;-0.48;83.70
74798;BME280;63326;45.088;7.658;2023-01-16T01:45:13;97661.34;;;-0.28;84.59
74798;BME280;63326;45.088;7.658;2023-01-16T01:47:40;97657.75;;;-0.37;84.55
74798;BME280;63326;45.088;7.658;2023-01-16T01:50:18;97649.69;;;-0.45;85.26
74798;BME280;63326;45.088;7.658;2023-01-16T01:52:50;97592.84;;;-0.87;85.92
74798;BME280;63326;45.088;7.658;2023-01-16T01:55:20;97589.69;;;-0.90;85.87
74798;BME280;63326;45.088;7.658;2023-01-16T01:57:52;97648.03;;;-0.56;86.14
74798;BME280;63326;45.088;7.658;2023-01-16T02:00:24;97645.69;;;-0.49;85.67
74798;BME280;63326;45.088;7.658;2023-01-16T02:03:04;97584.81;;;-0.85;85.57
74798;BME280;63326;45.088;7.658;2023-01-16T02:05:36;97650.66;;;-0.46;85.25
74798;BME280;63326;45.088;7.658;2023-01-16T02:08:05;97626.41;;;-0.50;85.23
74798;BME280;63326;45.088;7.658;2023-01-16T02:10:38;97623.34;;;-0.55;85.72
74798;BME280;63326;45.088;7.658;2023-01-16T02:13:06;97610.63;;;-0.60;85.84
74798;BME280;63326;45.088;7.658;2023-01-16T02:15:33;97593.03;;;-0.69;85.83
74798;BME280;63326;45.088;7.658;2023-01-16T02:18:00;97569.03;;;-0.75;85.85
74798;BME280;63326;45.088;7.658;2023-01-16T02:20:57;97624.47;;;-0.38;85.84
74798;BME280;63326;45.088;7.658;2023-01-16T02:37:34;97594.09;;;-0.23;85.10
74798;BME280;63326;45.088;7.658;2023-01-16T02:43:34;97551.03;;;-0.51;85.24
74798;BME280;63326;45.088;7.658;2023-01-16T02:46:13;97556.41;;;-0.33;85.88
74798;BME280;63326;45.088;7.658;2023-01-16T02:49:06;97583.94;;;0.02;85.25
74798;BME280;63326;45.088;7.658;2023-01-16T02:51:41;97574.94;;;-0.06;85.15
74798;BME280;63326;45.088;7.658;2023-01-16T02:54:18;97517.03;;;-0.35;85.17
74798;BME280;63326;45.088;7.658;2023-01-16T02:56:56;97569.50;;;0.06;85.62
74798;BME280;63326;45.088;7.658;2023-01-16T02:59:27;97494.84;;;-0.32;85.37
74798;BME280;63326;45.088;7.658;2023-01-16T03:01:56;97549.25;;;0.06;85.54
74798;BME280;63326;45.088;7.658;2023-01-16T03:10:13;97556.00;;;0.18;86.22
74798;BME280;63326;45.088;7.658;2023-01-16T03:23:53;97526.59;;;0.23;85.81
74798;BME280;63326;45.088;7.658;2023-01-16T03:26:28;97541.53;;;0.32;86.25
74798;BME280;63326;45.088;7.658;2023-01-16T03:29:13;97543.91;;;0.25;85.86
74798;BME280;63326;45.088;7.658;2023-01-16T03:31:49;97501.25;;;0.12;86.06
74798;BME280;63326;45.088;7.658;2023-01-16T03:34:31;97522.59;;;0.09;84.94
74798;BME280;63326;45.088;7.658;2023-01-16T03:39:45;97477.94;;;-0.20;82.49
74798;BME280;63326;45.088;7.658;2023-01-16T03:42:24;97512.16;;;-0.10;83.22
74798;BME280;63326;45.088;7.658;2023-01-16T03:44:55;97511.19;;;-0.09;83.19
74798;BME280;63326;45.088;7.658;2023-01-16T03:47:28;97440.28;;;-0.40;83.40
74798;BME280;63326;45.088;7.658;2023-01-16T03:50:01;97502.28;;;-0.08;82.64
74798;BME280;63326;45.088;7.658;2023-01-16T03:52:50;97472.91;;;-0.13;83.27
74798;BME280;63326;45.088;7.658;2023-01-16T03:55:31;97498.34;;;0.06;82.08
74798;BME280;63326;45.088;7.658;2023-01-16T03:58:07;97446.63;;;-0.33;81.81
74798;BME280;63326;45.088;7.658;2023-01-16T04:00:59;97470.97;;;-0.21;81.81
74798;BME280;63326;45.088;7.658;2023-01-16T04:04:08;97481.75;;;-0.05;81.96
74798;BME280;63326;45.088;7.658;2023-01-16T04:06:51;97488.50;;;0.08;83.05
74798;BME280;63326;45.088;7.658;2023-01-16T04:09:41;97490.47;;;-0.04;82.61
74798;BME280;63326;45.088;7.658;2023-01-16T04:12:11;97427.19;;;-0.69;83.20
74798;BME280;63326;45.088;7.658;2023-01-16T04:14:39;97458.75;;;-0.49;84.82
74798;BME280;63326;45.088;7.658;2023-01-16T04:17:07;97468.09;;;-0.27;84.71
74798;BME280;63326;45.088;7.658;2023-01-16T04:19:35;97449.78;;;-0.19;84.86
74798;BME280;63326;45.088;7.658;2023-01-16T04:22:06;97439.44;;;-0.03;86.25
74798;BME280;63326;45.088;7.658;2023-01-16T04:24:34;97439.25;;;0.08;87.04
74798;BME280;63326;45.088;7.658;2023-01-16T04:27:01;97427.53;;;0.20;87.65
74798;BME280;63326;45.088;7.658;2023-01-16T04:29:28;97424.16;;;0.28;88.14
74798;BME280;63326;45.088;7.658;2023-01-16T04:31:57;97422.75;;;0.34;88.29
74798;BME280;63326;45.088;7.658;2023-01-16T04:34:24;97425.19;;;0.45;88.05
74798;BME280;63326;45.088;7.658;2023-01-16T04:36:51;97420.56;;;0.47;88.56
74798;BME280;63326;45.088;7.658;2023-01-16T04:39:18;97440.88;;;0.64;88.21
74798;BME280;63326;45.088;7.658;2023-01-16T04:41:44;97396.31;;;0.43;87.66
74798;BME280;63326;45.088;7.658;2023-01-16T04:44:19;97438.91;;;0.66;86.87
74798;BME280;63326;45.088;7.658;2023-01-16T04:46:46;97379.44;;;0.36;87.46
74798;BME280;63326;45.088;7.658;2023-01-16T04:49:12;97399.41;;;0.56;88.04
74798;BME280;63326;45.088;7.658;2023-01-16T04:51:39;97386.81;;;0.50;88.19
74798;BME280;63326;45.088;7.658;2023-01-16T04:54:06;97402.06;;;0.56;88.15
74798;BME280;63326;45.088;7.658;2023-01-16T04:56:34;97419.63;;;0.83;88.67
74798;BME280;63326;45.088;7.658;2023-01-16T04:59:02;97405.53;;;0.75;87.68
74798;BME280;63326;45.088;7.658;2023-01-16T05:01:28;97400.75;;;0.78;87.63
74798;BME280;63326;45.088;7.658;2023-01-16T05:04:01;97396.94;;;0.73;87.88
74798;BME280;63326;45.088;7.658;2023-01-16T05:06:28;97364.69;;;0.43;87.64
74798;BME280;63326;45.088;7.658;2023-01-16T05:08:55;97351.84;;;0.31;87.76
74798;BME280;63326;45.088;7.658;2023-01-16T05:11:21;97415.44;;;0.81;88.31
74798;BME280;63326;45.088;7.658;2023-01-16T05:13:48;97414.41;;;0.74;88.37
74798;BME280;63326;45.088;7.658;2023-01-16T05:16:15;97388.47;;;0.69;88.95
74798;BME280;63326;45.088;7.658;2023-01-16T05:18:42;97370.91;;;0.60;88.83
74798;BME280;63326;45.088;7.658;2023-01-16T05:21:09;97378.09;;;0.68;89.03
74798;BME280;63326;45.088;7.658;2023-01-16T05:23:39;97386.91;;;0.76;88.70
74798;BME280;63326;45.088;7.658;2023-01-16T05:26:06;97372.28;;;0.64;88.90
74798;BME280;63326;45.088;7.658;2023-01-16T05:28:34;97413.38;;;0.84;88.68
74798;BME280;63326;45.088;7.658;2023-01-16T05:31:02;97404.78;;;0.82;88.88
74798;BME280;63326;45.088;7.658;2023-01-16T05:33:28;97403.16;;;0.90;89.58
74798;BME280;63326;45.088;7.658;2023-01-16T05:35:55;97392.25;;;0.84;89.21
74798;BME280;63326;45.088;7.658;2023-01-16T05:38:22;97390.44;;;0.85;89.69
74798;BME280;63326;45.088;7.658;2023-01-16T05:40:52;97347.88;;;0.62;89.50
74798;BME280;63326;45.088;7.658;2023-01-16T05:43:20;97363.16;;;0.76;89.51
74798;BME280;63326;45.088;7.658;2023-01-16T05:45:47;97322.94;;;0.56;89.23
74798;BME280;63326;45.088;7.658;2023-01-16T05:48:13;97354.41;;;0.76;89.19
74798;BME280;63326;45.088;7.658;2023-01-16T05:50:40;97364.41;;;0.90;89.15
74798;BME280;63326;45.088;7.658;2023-01-16T05:53:07;97329.84;;;0.75;89.20
74798;BME280;63326;45.088;7.658;2023-01-16T05:55:43;97358.03;;;0.93;89.72
74798;BME280;63326;45.088;7.658;2023-01-16T05:58:12;97345.53;;;0.77;89.53
74798;BME280;63326;45.088;7.658;2023-01-16T06:00:40;97348.38;;;0.83;89.49
74798;BME280;63326;45.088;7.658;2023-01-16T06:03:07;97355.22;;;0.94;89.82
74798;BME280;63326;45.088;7.658;2023-01-16T06:05:34;97312.38;;;0.74;89.03
74798;BME280;63326;45.088;7.658;2023-01-16T06:08:01;97348.41;;;0.92;88.65
74798;BME280;63326;45.088;7.658;2023-01-16T06:10:28;97329.59;;;0.86;89.31
74798;BME280;63326;45.088;7.658;2023-01-16T06:12:54;97314.69;;;0.77;89.40
74798;BME280;63326;45.088;7.658;2023-01-16T06:15:21;97320.25;;;0.92;89.60
74798;BME280;63326;45.088;7.658;2023-01-16T06:17:48;97316.31;;;0.96;89.61
74798;BME280;63326;45.088;7.658;2023-01-16T06:20:17;97308.56;;;0.95;90.05
74798;BME280;63326;45.088;7.658;2023-01-16T06:22:43;97315.00;;;1.00;89.94
74798;BME280;63326;45.088;7.658;2023-01-16T06:25:10;97322.47;;;1.05;90.20
74798;BME280;63326;45.088;7.658;2023-01-16T06:27:37;97316.97;;;0.98;90.53
74798;BME280;63326;45.088;7.658;2023-01-16T06:30:07;97320.00;;;1.03;90.17
74798;BME280;63326;45.088;7.658;2023-01-16T06:32:34;97322.38;;;1.14;90.64
74798;BME280;63326;45.088;7.658;2023-01-16T06:35:01;97290.09;;;0.95;90.30
74798;BME280;63326;45.088;7.658;2023-01-16T06:37:27;97302.09;;;1.15;90.14
74798;BME280;63326;45.088;7.658;2023-01-16T06:39:54;97326.13;;;1.38;90.05
74798;BME280;63326;45.088;7.658;2023-01-16T06:42:23;97314.38;;;1.32;90.29
74798;BME280;63326;45.088;7.658;2023-01-16T06:44:50;97310.78;;;1.33;89.91
74798;BME280;63326;45.088;7.658;2023-01-16T06:47:16;97307.66;;;1.38;90.50
74798;BME280;63326;45.088;7.658;2023-01-16T06:49:43;97275.88;;;1.22;90.29
74798;BME280;63326;45.088;7.658;2023-01-16T06:52:10;97293.44;;;1.39;90.17
74798;BME280;63326;45.088;7.658;2023-01-16T06:54:36;97278.22;;;1.33;89.98
74798;BME280;63326;45.088;7.658;2023-01-16T06:57:03;97257.25;;;1.23;90.46
74798;BME280;63326;45.088;7.658;2023-01-16T06:59:30;97248.84;;;1.28;90.22
74798;BME280;63326;45.088;7.658;2023-01-16T07:01:56;97277.31;;;1.50;90.25
74798;BME280;63326;45.088;7.658;2023-01-16T07:04:23;97212.19;;;1.17;90.09
74798;BME280;63326;45.088;7.658;2023-01-16T07:06:50;97247.91;;;1.37;89.64
74798;BME280;63326;45.088;7.658;2023-01-16T07:09:17;97218.28;;;1.17;89.94
74798;BME280;63326;45.088;7.658;2023-01-16T07:11:44;97231.81;;;1.22;89.87
74798;BME280;63326;45.088;7.658;2023-01-16T07:14:10;97219.22;;;1.08;90.07
74798;BME280;63326;45.088;7.658;2023-01-16T07:16:55;97252.69;;;1.33;89.95
74798;BME280;63326;45.088;7.658;2023-01-16T07:19:40;97245.41;;;1.35;89.93
74798;BME280;63326;45.088;7.658;2023-01-16T07:22:26;97238.50;;;1.34;89.52
74798;BME280;63326;45.088;7.658;2023-01-16T07:25:16;97255.25;;;1.59;89.61
74798;BME280;63326;45.088;7.658;2023-01-16T07:27:45;97242.53;;;1.63;90.03
74798;BME280;63326;45.088;7.658;2023-01-16T07:30:16;97211.44;;;1.40;89.33
74798;BME280;63326;45.088;7.658;2023-01-16T07:32:43;97227.00;;;1.60;89.36
74798;BME280;63326;45.088;7.658;2023-01-16T07:35:10;97209.19;;;1.62;89.45
74798;BME280;63326;45.088;7.658;2023-01-16T07:37:38;97234.00;;;1.77;89.59
74798;BME280;63326;45.088;7.658;2023-01-16T07:40:06;97172.19;;;1.54;89.29
74798;BME280;63326;45.088;7.658;2023-01-16T07:42:33;97180.63;;;1.65;89.16
74798;BME280;63326;45.088;7.658;2023-01-16T07:44:59;97225.75;;;1.88;89.18
74798;BME280;63326;45.088;7.658;2023-01-16T07:47:26;97203.13;;;1.78;88.85
74798;BME280;63326;45.088;7.658;2023-01-16T07:49:52;97200.16;;;1.89;89.44
74798;BME280;63326;45.088;7.658;2023-01-16T07:52:19;97162.31;;;1.80;89.00
74798;BME280;63326;45.088;7.658;2023-01-16T07:54:46;97153.09;;;1.84;89.02
74798;BME280;63326;45.088;7.658;2023-01-16T07:57:12;97185.16;;;2.06;88.64
74798;BME280;63326;45.088;7.658;2023-01-16T07:59:39;97183.81;;;2.10;88.67
74798;BME280;63326;45.088;7.658;2023-01-16T08:02:08;97170.44;;;2.19;88.68
74798;BME280;63326;45.088;7.658;2023-01-16T08:04:35;97139.38;;;1.97;88.19
74798;BME280;63326;45.088;7.658;2023-01-16T08:07:01;97176.19;;;2.31;87.72
74798;BME280;63326;45.088;7.658;2023-01-16T08:09:28;97180.66;;;2.39;87.72
74798;BME280;63326;45.088;7.658;2023-01-16T08:11:55;97146.13;;;2.24;87.47
74798;BME280;63326;45.088;7.658;2023-01-16T08:14:21;97159.34;;;2.40;87.43
74798;BME280;63326;45.088;7.658;2023-01-16T08:16:48;97118.06;;;2.15;86.76
74798;BME280;63326;45.088;7.658;2023-01-16T08:19:14;97135.38;;;2.34;86.66
74798;BME280;63326;45.088;7.658;2023-01-16T08:21:41;97100.53;;;2.14;86.17
74798;BME280;63326;45.088;7.658;2023-01-16T08:24:08;97108.97;;;2.25;86.41
74798;BME280;63326;45.088;7.658;2023-01-16T08:26:35;97138.50;;;2.45;86.46
74798;BME280;63326;45.088;7.658;2023-01-16T08:29:02;97090.94;;;2.21;86.54
74798;BME280;63326;45.088;7.658;2023-01-16T08:31:29;97135.81;;;2.62;86.23
74798;BME280;63326;45.088;7.658;2023-01-16T08:33:57;97146.56;;;2.68;85.69
74798;BME280;63326;45.088;7.658;2023-01-16T08:36:23;97132.34;;;2.61;85.77
74798;BME280;63326;45.088;7.658;2023-01-16T08:38:51;97122.75;;;2.68;85.95
74798;BME280;63326;45.088;7.658;2023-01-16T08:41:18;97120.91;;;2.77;85.58
74798;BME280;63326;45.088;7.658;2023-01-16T08:44:04;97140.88;;;2.87;85.22
74798;BME280;63326;45.088;7.658;2023-01-16T08:46:57;97141.66;;;2.96;85.59
74798;BME280;63326;45.088;7.658;2023-01-16T08:49:44;97139.16;;;2.95;85.37
74798;BME280;63326;45.088;7.658;2023-01-16T08:52:30;97110.44;;;2.83;84.92
74798;BME280;63326;45.088;7.658;2023-01-16T08:54:57;97138.28;;;3.10;85.04
74798;BME280;63326;45.088;7.658;2023-01-16T08:57:25;97147.34;;;3.16;84.77
74798;BME280;63326;45.088;7.658;2023-01-16T08:59:52;97078.88;;;2.74;83.98
74798;BME280;63326;45.088;7.658;2023-01-16T09:02:20;97126.53;;;3.13;84.27
74798;BME280;63326;45.088;7.658;2023-01-16T09:04:47;97133.81;;;3.11;84.00
74798;BME280;63326;45.088;7.658;2023-01-16T09:07:15;97139.72;;;3.21;83.64
74798;BME280;63326;45.088;7.658;2023-01-16T09:09:42;97110.16;;;3.09;83.43
74798;BME280;63326;45.088;7.658;2023-01-16T09:12:10;97118.53;;;3.21;83.63
74798;BME280;63326;45.088;7.658;2023-01-16T09:14:55;97108.47;;;3.16;83.54
74798;BME280;63326;45.088;7.658;2023-01-16T09:17:23;97083.25;;;2.98;83.16
74798;BME280;63326;45.088;7.658;2023-01-16T09:19:50;97118.19;;;3.24;83.73
74798;BME280;63326;45.088;7.658;2023-01-16T09:22:18;97091.88;;;3.23;82.88
74798;BME280;63326;45.088;7.658;2023-01-16T09:24:45;97036.59;;;2.97;82.83
74798;BME280;63326;45.088;7.658;2023-01-16T09:27:11;97062.78;;;3.14;82.46
74798;BME280;63326;45.088;7.658;2023-01-16T09:29:41;97043.22;;;3.24;82.56
74798;BME280;63326;45.088;7.658;2023-01-16T09:32:08;97040.19;;;3.27;82.19
74798;BME280;63326;45.088;7.658;2023-01-16T09:34:37;97025.25;;;3.34;82.20
74798;BME280;63326;45.088;7.658;2023-01-16T09:37:06;97073.88;;;3.87;82.03
74798;BME280;63326;45.088;7.658;2023-01-16T09:39:33;97053.78;;;3.92;81.34
74798;BME280;63326;45.088;7.658;2023-01-16T09:44:48;97041.91;;;4.03;80.72
74798;BME280;63326;45.088;7.658;2023-01-16T09:47:17;97057.31;;;4.22;80.37
74798;BME280;63326;45.088;7.658;2023-01-16T09:49:52;97058.81;;;4.40;77.35
74798;BME280;63326;45.088;7.658;2023-01-16T09:52:24;97061.91;;;4.43;77.38
74798;BME280;63326;45.088;7.658;2023-01-16T09:55:22;97051.00;;;4.53;77.28
74798;BME280;63326;45.088;7.658;2023-01-16T09:58:13;97049.38;;;4.52;77.44
74798;BME280;63326;45.088;7.658;2023-01-16T10:00:59;97052.94;;;4.44;76.68
74798;BME280;63326;45.088;7.658;2023-01-16T10:03:26;97026.41;;;4.29;76.78
74798;BME280;63326;45.088;7.658;2023-01-16T10:11:40;97015.69;;;4.38;76.87
74798;BME280;63326;45.088;7.658;2023-01-16T10:25:38;97042.13;;;4.75;74.36
74798;BME280;63326;45.088;7.658;2023-01-16T10:30:43;97002.03;;;4.70;75.49
74798;BME280;63326;45.088;7.658;2023-01-16T10:33:30;96977.44;;;4.61;75.41
74798;BME280;63326;45.088;7.658;2023-01-16T10:36:09;96981.91;;;4.46;75.16
74798;BME280;63326;45.088;7.658;2023-01-16T10:38:47;96994.53;;;4.59;74.85
74798;BME280;63326;45.088;7.658;2023-01-16T10:41:30;97016.59;;;4.74;75.07
74798;BME280;63326;45.088;7.658;2023-01-16T10:44:35;96999.91;;;4.80;74.78
74798;BME280;63326;45.088;7.658;2023-01-16T10:47:22;96991.00;;;4.22;76.67
74798;BME280;63326;45.088;7.658;2023-01-16T10:50:08;96981.19;;;4.08;76.74
74798;BME280;63326;45.088;7.658;2023-01-16T10:52:36;96957.16;;;3.95;76.87
74798;BME280;63326;45.088;7.658;2023-01-16T10:55:04;96991.94;;;4.29;76.88
74798;BME280;63326;45.088;7.658;2023-01-16T10:57:31;96964.53;;;4.29;75.29
74798;BME280;63326;45.088;7.658;2023-01-16T11:00:05;96961.91;;;4.44;75.22
74798;BME280;63326;45.088;7.658;2023-01-16T11:02:38;96958.88;;;4.32;74.95
74798;BME280;63326;45.088;7.658;2023-01-16T11:07:52;96902.00;;;4.92;74.18
74798;BME280;63326;45.088;7.658;2023-01-16T11:10:19;96924.16;;;5.48;71.38
74798;BME280;63326;45.088;7.658;2023-01-16T11:12:46;96892.53;;;5.88;70.28
74798;BME280;63326;45.088;7.658;2023-01-16T11:15:31;96884.63;;;5.95;67.30
74798;BME280;63326;45.088;7.658;2023-01-16T11:18:26;96879.16;;;6.03;68.13
74798;BME280;63326;45.088;7.658;2023-01-16T11:20:57;96916.16;;;5.98;69.08
74798;BME280;63326;45.088;7.658;2023-01-16T11:23:26;96882.75;;;5.33;69.79
74798;BME280;63326;45.088;7.658;2023-01-16T11:25:55;96922.91;;;5.44;70.58
74798;BME280;63326;45.088;7.658;2023-01-16T11:28:30;96911.97;;;5.61;70.59
74798;BME280;63326;45.088;7.658;2023-01-16T11:31:00;96875.06;;;4.74;72.00
74798;BME280;63326;45.088;7.658;2023-01-16T11:33:38;96856.88;;;4.34;72.94
74798;BME280;63326;45.088;7.658;2023-01-16T11:36:07;96868.72;;;4.53;72.36
74798;BME280;63326;45.088;7.658;2023-01-16T11:38:37;96885.81;;;4.87;72.33
74798;BME280;63326;45.088;7.658;2023-01-16T11:41:05;96850.34;;;4.52;72.28
74798;BME280;63326;45.088;7.658;2023-01-16T11:43:34;96850.22;;;4.81;72.73
74798;BME280;63326;45.088;7.658;2023-01-16T11:48:54;96852.38;;;5.20;71.29
74798;BME280;63326;45.088;7.658;2023-01-16T11:51:24;96812.13;;;4.96;70.80
74798;BME280;63326;45.088;7.658;2023-01-16T11:53:53;96846.25;;;5.20;70.16
74798;BME280;63326;45.088;7.658;2023-01-16T11:56:30;96848.03;;;5.13;70.17
74798;BME280;63326;45.088;7.658;2023-01-16T12:27:56;96750.34;;;5.84;67.56
74798;BME280;63326;45.088;7.658;2023-01-16T12:33:34;96749.19;;;5.93;66.70
74798;BME280;63326;45.088;7.658;2023-01-16T12:36:14;96755.88;;;5.89;66.58
74798;BME280;63326;45.088;7.658;2023-01-16T12:41:42;96769.00;;;5.91;65.86
74798;BME280;63326;45.088;7.658;2023-01-16T12:49:52;96771.69;;;5.97;66.39
74798;BME280;63326;45.088;7.658;2023-01-16T12:52:30;96779.69;;;6.04;65.27
74798;BME280;63326;45.088;7.658;2023-01-16T12:55:15;96769.13;;;5.76;66.01
74798;BME280;63326;45.088;7.658;2023-01-16T12:58:08;96783.06;;;5.85;66.20
74798;BME280;63326;45.088;7.658;2023-01-16T13:00:43;96771.00;;;5.89;66.02
74798;BME280;63326;45.088;7.658;2023-01-16T13:03:39;96774.75;;;5.94;65.96
74798;BME280;63326;45.088;7.658;2023-01-16T13:06:10;96750.59;;;5.96;66.14
74798;BME280;63326;45.088;7.658;2023-01-16T13:08:45;96743.09;;;6.19;65.59
74798;BME280;63326;45.088;7.658;2023-01-16T13:11:19;96735.13;;;6.26;64.52
74798;BME280;63326;45.088;7.658;2023-01-16T13:14:30;96723.91;;;6.37;62.95
74798;BME280;63326;45.088;7.658;2023-01-16T13:17:03;96735.13;;;6.32;63.44
74798;BME280;63326;45.088;7.658;2023-01-16T13:19:36;96722.84;;;6.25;63.56
74798;BME280;63326;45.088;7.658;2023-01-16T13:22:10;96712.84;;;6.40;63.72
74798;BME280;63326;45.088;7.658;2023-01-16T13:25:02;96650.16;;;6.11;63.18
74798;BME280;63326;45.088;7.658;2023-01-16T13:27:40;96673.13;;;6.65;62.15
74798;BME280;63326;45.088;7.658;2023-01-16T13:30:13;96630.03;;;6.94;61.41
74798;BME280;63326;45.088;7.658;2023-01-16T13:33:04;96642.09;;;8.00;58.11
74798;BME280;63326;45.088;7.658;2023-01-16T13:43:42;96663.03;;;9.94;52.03
74798;BME280;63326;45.088;7.658;2023-01-16T13:46:28;96649.09;;;10.04;50.85
74798;BME280;63326;45.088;7.658;2023-01-16T13:49:00;96673.50;;;9.96;51.84
74798;BME280;63326;45.088;7.658;2023-01-16T13:51:28;96670.34;;;9.69;52.72
74798;BME280;63326;45.088;7.658;2023-01-16T13:54:00;96626.09;;;8.81;52.76
74798;BME280;63326;45.088;7.658;2023-01-16T13:56:31;96624.63;;;8.35;55.18
74798;BME280;63326;45.088;7.658;2023-01-16T13:59:04;96674.72;;;7.64;56.30
74798;BME280;63326;45.088;7.658;2023-01-16T14:06:52;96678.16;;;7.71;57.88
74798;BME280;63326;45.088;7.658;2023-01-16T14:10:23;96666.13;;;7.55;57.74
74798;BME280;63326;45.088;7.658;2023-01-16T14:13:13;96651.56;;;7.58;58.37
74798;BME280;63326;45.088;7.658;2023-01-16T14:24:04;96600.00;;;8.58;54.03
74798;BME280;63326;45.088;7.658;2023-01-16T14:26:45;96633.19;;;8.87;54.10
74798;BME280;63326;45.088;7.658;2023-01-16T14:29:30;96626.53;;;8.97;53.81
74798;BME280;63326;45.088;7.658;2023-01-16T14:34:33;96630.03;;;8.22;55.65
74798;BME280;63326;45.088;7.658;2023-01-16T14:37:06;96626.09;;;8.00;55.76
74798;BME280;63326;45.088;7.658;2023-01-16T14:39:46;96602.56;;;6.94;57.73
74798;BME280;63326;45.088;7.658;2023-01-16T14:42:27;96636.09;;;7.28;58.12
74798;BME280;63326;45.088;7.658;2023-01-16T14:45:29;96613.75;;;7.22;58.78
74798;BME280;63326;45.088;7.658;2023-01-16T14:48:29;96646.66;;;6.90;59.67
74798;BME280;63326;45.088;7.658;2023-01-16T14:51:33;96614.31;;;6.80;60.29
74798;BME280;63326;45.088;7.658;2023-01-16T14:54:31;96638.09;;;6.68;60.46
74798;BME280;63326;45.088;7.658;2023-01-16T14:57:22;96626.63;;;6.61;61.35
74798;BME280;63326;45.088;7.658;2023-01-16T15:00:07;96628.09;;;6.44;61.69
74798;BME280;63326;45.088;7.658;2023-01-16T15:02:43;96630.72;;;6.30;61.85
74798;BME280;63326;45.088;7.658;2023-01-16T15:05:20;96565.66;;;5.93;62.50
74798;BME280;63326;45.088;7.658;2023-01-16T15:07:56;96612.31;;;6.29;62.20
74798;BME280;63326;45.088;7.658;2023-01-16T15:10:29;96589.59;;;6.13;62.59
74798;BME280;63326;45.088;7.658;2023-01-16T15:16:01;96558.00;;;5.57;63.11
74798;BME280;63326;45.088;7.658;2023-01-16T15:18:29;96561.06;;;5.61;63.08
74798;BME280;63326;45.088;7.658;2023-01-16T15:21:18;96594.88;;;5.87;63.46
74798;BME280;63326;45.088;7.658;2023-01-16T15:24:05;96600.59;;;5.84;63.66
74798;BME280;63326;45.088;7.658;2023-01-16T15:26:51;96582.97;;;5.69;63.91
74798;BME280;63326;45.088;7.658;2023-01-16T15:29:32;96593.81;;;5.81;63.32
74798;BME280;63326;45.088;7.658;2023-01-16T15:32:11;96564.34;;;5.56;64.09
74798;BME280;63326;45.088;7.658;2023-01-16T15:34:44;96585.19;;;5.59;64.36
74798;BME280;63326;45.088;7.658;2023-01-16T15:37:19;96630.63;;;5.64;65.12
74798;BME280;63326;45.088;7.658;2023-01-16T15:39:46;96615.06;;;5.68;64.98
74798;BME280;63326;45.088;7.658;2023-01-16T15:42:17;96583.78;;;5.57;65.54
74798;BME280;63326;45.088;7.658;2023-01-16T15:45:26;96603.22;;;5.64;66.44
74798;BME280;63326;45.088;7.658;2023-01-16T15:48:36;96603.75;;;5.39;67.27
74798;BME280;63326;45.088;7.658;2023-01-16T15:51:08;96560.13;;;5.07;67.51
74798;BME280;63326;45.088;7.658;2023-01-16T15:53:38;96570.78;;;5.14;67.27